sensor_id;sensor_type;location;lat;lon;timestamp;pressure;altitude;pressure_sealevel;temperature;humidity
5703;BME280;2876;51.738;10.050;2023-04-27T00:03:38;99572.09;;;1.79;88.39
5703;BME280;2876;51.738;10.050;2023-04-27T00:09:40;99577.38;;;1.69;88.98
5703;BME280;2876;51.738;10.050;2023-04-27T00:15:42;99582.94;;;1.76;88.77
5703;BME280;2876;51.738;10.050;2023-04-27T00:21:46;99581.09;;;1.67;88.74
5703;BME280;2876;51.738;10.050;2023-04-27T00:27:47;99574.88;;;1.77;89.03
5703;BME280;2876;51.738;10.050;2023-04-27T00:33:49;99574.31;;;1.74;89.32
5703;BME280;2876;51.738;10.050;2023-04-27T00:39:51;99577.53;;;1.87;88.34
5703;BME280;2876;51.738;10.050;2023-04-27T00:45:53;99570.16;;;1.91;88.01
5703;BME280;2876;51.738;10.050;2023-04-27T00:51:55;99582.81;;;1.87;88.27
5703;BME280;2876;51.738;10.050;2023-04-27T00:57:57;99582.66;;;1.60;88.60
5703;BME280;2876;51.738;10.050;2023-04-27T01:03:59;99592.09;;;1.72;89.17
5703;BME280;2876;51.738;10.050;2023-04-27T01:10:04;99589.63;;;1.80;89.29
5703;BME280;2876;51.738;10.050;2023-04-27T01:16:07;99585.31;;;1.89;89.42
5703;BME280;2876;51.738;10.050;2023-04-27T01:22:09;99592.41;;;1.88;88.64
5703;BME280;2876;51.738;10.050;2023-04-27T01:28:11;99589.06;;;1.76;89.03
5703;BME280;2876;51.738;10.050;2023-04-27T01:34:13;99591.00;;;1.74;89.15
5703;BME280;2876;51.738;10.050;2023-04-27T01:40:16;99598.53;;;1.69;88.95
5703;BME280;2876;51.738;10.050;2023-04-27T01:46:18;99599.84;;;1.54;89.05
5703;BME280;2876;51.738;10.050;2023-04-27T01:52:20;99609.97;;;1.39;90.46
5703;BME280;2876;51.738;10.050;2023-04-27T01:58:22;99612.97;;;1.56;89.73
5703;BME280;2876;51.738;10.050;2023-04-27T02:04:24;99615.72;;;1.54;90.51
5703;BME280;2876;51.738;10.050;2023-04-27T02:10:26;99632.91;;;1.79;90.13
5703;BME280;2876;51.738;10.050;2023-04-27T02:16:28;99635.31;;;2.01;90.23
5703;BME280;2876;51.738;10.050;2023-04-27T02:22:30;99636.72;;;2.06;89.86
5703;BME280;2876;51.738;10.050;2023-04-27T02:28:32;99642.81;;;1.96;89.42
5703;BME280;2876;51.738;10.050;2023-04-27T02:34:34;99645.06;;;2.01;89.93
5703;BME280;2876;51.738;10.050;2023-04-27T02:40:37;99649.50;;;2.00;90.84
5703;BME280;2876;51.738;10.050;2023-04-27T02:46:38;99653.84;;;2.21;90.34
5703;BME280;2876;51.738;10.050;2023-04-27T02:52:40;99661.78;;;2.31;89.98
5703;BME280;2876;51.738;10.050;2023-04-27T02:58:42;99662.50;;;2.33;90.08
5703;BME280;2876;51.738;10.050;2023-04-27T03:04:45;99659.84;;;2.33;90.20
5703;BME280;2876;51.738;10.050;2023-04-27T03:10:48;99654.41;;;2.44;90.31
5703;BME280;2876;51.738;10.050;2023-04-27T03:16:49;99664.16;;;2.53;89.99
5703;BME280;2876;51.738;10.050;2023-04-27T03:22:51;99655.25;;;2.64;89.73
5703;BME280;2876;51.738;10.050;2023-04-27T03:28:53;99655.66;;;2.59;90.25
5703;BME280;2876;51.738;10.050;2023-04-27T03:34:55;99663.31;;;2.43;89.86
5703;BME280;2876;51.738;10.050;2023-04-27T03:40:57;99656.78;;;2.27;90.28
5703;BME280;2876;51.738;10.050;2023-04-27T03:46:59;99662.50;;;2.23;90.22
5703;BME280;2876;51.738;10.050;2023-04-27T03:53:02;99662.75;;;2.10;90.38
5703;BME280;2876;51.738;10.050;2023-04-27T03:59:04;99662.59;;;2.12;90.32
5703;BME280;2876;51.738;10.050;2023-04-27T04:05:06;99667.06;;;2.01;90.35
5703;BME280;2876;51.738;10.050;2023-04-27T04:11:09;99659.50;;;1.87;90.70
5703;BME280;2876;51.738;10.050;2023-04-27T04:17:11;99657.69;;;1.78;90.49
5703;BME280;2876;51.738;10.050;2023-04-27T04:23:13;99668.34;;;1.67;91.29
5703;BME280;2876;51.738;10.050;2023-04-27T04:29:15;99670.53;;;1.52;91.17
5703;BME280;2876;51.738;10.050;2023-04-27T04:35:17;99667.19;;;1.50;91.40
5703;BME280;2876;51.738;10.050;2023-04-27T04:41:20;99669.50;;;1.43;91.12
5703;BME280;2876;51.738;10.050;2023-04-27T04:47:22;99674.00;;;1.22;92.56
5703;BME280;2876;51.738;10.050;2023-04-27T04:53:24;99666.97;;;1.32;92.37
5703;BME280;2876;51.738;10.050;2023-04-27T04:59:26;99668.09;;;1.39;91.98
5703;BME280;2876;51.738;10.050;2023-04-27T05:05:30;99687.22;;;1.52;93.30
5703;BME280;2876;51.738;10.050;2023-04-27T05:11:32;99687.16;;;1.73;92.05
5703;BME280;2876;51.738;10.050;2023-04-27T05:17:34;99700.75;;;2.09;91.74
5703;BME280;2876;51.738;10.050;2023-04-27T05:23:36;99710.66;;;2.36;91.81
5703;BME280;2876;51.738;10.050;2023-04-27T05:29:38;99719.22;;;2.78;90.12
5703;BME280;2876;51.738;10.050;2023-04-27T05:35:40;99726.16;;;2.99;90.08
5703;BME280;2876;51.738;10.050;2023-04-27T05:41:42;99733.47;;;3.34;89.53
5703;BME280;2876;51.738;10.050;2023-04-27T05:47:44;99741.78;;;3.59;89.01
5703;BME280;2876;51.738;10.050;2023-04-27T05:53:46;99729.75;;;4.01;88.64
5703;BME280;2876;51.738;10.050;2023-04-27T05:59:48;99739.97;;;4.24;87.44
5703;BME280;2876;51.738;10.050;2023-04-27T06:05:59;99742.28;;;4.54;84.76
5703;BME280;2876;51.738;10.050;2023-04-27T06:12:01;99738.13;;;4.70;83.38
5703;BME280;2876;51.738;10.050;2023-04-27T06:18:05;99754.97;;;4.96;83.41
5703;BME280;2876;51.738;10.050;2023-04-27T06:24:07;99764.19;;;5.28;83.34
5703;BME280;2876;51.738;10.050;2023-04-27T06:30:09;99756.63;;;5.67;82.35
5703;BME280;2876;51.738;10.050;2023-04-27T06:36:11;99769.31;;;5.99;80.92
5703;BME280;2876;51.738;10.050;2023-04-27T06:42:13;99769.44;;;6.24;81.19
5703;BME280;2876;51.738;10.050;2023-04-27T06:48:15;99771.75;;;6.77;79.80
5703;BME280;2876;51.738;10.050;2023-04-27T06:54:17;99774.06;;;7.62;77.05
5703;BME280;2876;51.738;10.050;2023-04-27T07:00:20;99774.31;;;8.00;74.12
5703;BME280;2876;51.738;10.050;2023-04-27T07:06:22;99762.59;;;8.09;72.92
5703;BME280;2876;51.738;10.050;2023-04-27T07:12:26;99765.50;;;8.38;69.93
5703;BME280;2876;51.738;10.050;2023-04-27T07:18:28;99764.97;;;8.74;71.49
5703;BME280;2876;51.738;10.050;2023-04-27T07:24:30;99775.38;;;9.15;69.18
5703;BME280;2876;51.738;10.050;2023-04-27T07:30:32;99775.66;;;9.43;66.46
5703;BME280;2876;51.738;10.050;2023-04-27T07:36:37;99774.56;;;9.67;64.85
5703;BME280;2876;51.738;10.050;2023-04-27T07:42:39;99762.59;;;9.93;59.57
5703;BME280;2876;51.738;10.050;2023-04-27T07:48:42;99776.19;;;10.35;58.91
5703;BME280;2876;51.738;10.050;2023-04-27T07:54:45;99783.66;;;11.12;59.73
5703;BME280;2876;51.738;10.050;2023-04-27T08:00:47;99780.69;;;11.50;54.16
5703;BME280;2876;51.738;10.050;2023-04-27T08:06:49;99782.69;;;11.20;53.38
5703;BME280;2876;51.738;10.050;2023-04-27T08:12:52;99779.03;;;11.49;56.29
5703;BME280;2876;51.738;10.050;2023-04-27T08:18:54;99771.00;;;12.12;51.03
5703;BME280;2876;51.738;10.050;2023-04-27T08:24:56;99775.75;;;12.44;49.81
5703;BME280;2876;51.738;10.050;2023-04-27T08:30:58;99773.53;;;12.68;47.64
5703;BME280;2876;51.738;10.050;2023-04-27T08:37:00;99762.13;;;12.59;50.09
5703;BME280;2876;51.738;10.050;2023-04-27T08:43:03;99761.78;;;12.82;48.49
5703;BME280;2876;51.738;10.050;2023-04-27T08:49:06;99760.00;;;13.23;45.27
5703;BME280;2876;51.738;10.050;2023-04-27T08:55:08;99759.34;;;13.80;44.74
5703;BME280;2876;51.738;10.050;2023-04-27T09:01:10;99767.28;;;13.42;43.81
5703;BME280;2876;51.738;10.050;2023-04-27T09:07:16;99755.25;;;13.44;43.58
5703;BME280;2876;51.738;10.050;2023-04-27T09:13:18;99762.38;;;14.82;39.80
5703;BME280;2876;51.738;10.050;2023-04-27T09:19:27;99765.25;;;15.18;39.28
5703;BME280;2876;51.738;10.050;2023-04-27T09:25:31;99761.72;;;14.80;40.86
5703;BME280;2876;51.738;10.050;2023-04-27T09:31:34;99755.53;;;15.11;39.71
5703;BME280;2876;51.738;10.050;2023-04-27T09:37:36;99756.56;;;14.71;38.92
5703;BME280;2876;51.738;10.050;2023-04-27T09:43:39;99747.56;;;15.72;38.27
5703;BME280;2876;51.738;10.050;2023-04-27T09:49:42;99752.75;;;15.49;37.58
5703;BME280;2876;51.738;10.050;2023-04-27T09:55:57;99740.47;;;16.82;35.43
5703;BME280;2876;51.738;10.050;2023-04-27T10:02:01;99741.56;;;15.89;37.39
5703;BME280;2876;51.738;10.050;2023-04-27T10:08:24;99742.59;;;17.21;35.14
5703;BME280;2876;51.738;10.050;2023-04-27T10:14:27;99741.03;;;17.91;37.32
5703;BME280;2876;51.738;10.050;2023-04-27T10:20:34;99741.69;;;17.51;34.35
5703;BME280;2876;51.738;10.050;2023-04-27T10:26:46;99741.16;;;16.77;34.73
5703;BME280;2876;51.738;10.050;2023-04-27T10:33:03;99730.38;;;15.67;35.34
5703;BME280;2876;51.738;10.050;2023-04-27T10:39:16;99730.38;;;18.01;36.02
5703;BME280;2876;51.738;10.050;2023-04-27T10:45:26;99735.44;;;19.69;30.60
5703;BME280;2876;51.738;10.050;2023-04-27T10:51:32;99730.63;;;20.15;29.64
5703;BME280;2876;51.738;10.050;2023-04-27T10:57:34;99731.16;;;22.16;27.15
5703;BME280;2876;51.738;10.050;2023-04-27T11:03:57;99724.75;;;21.95;26.38
5703;BME280;2876;51.738;10.050;2023-04-27T11:10:00;99731.59;;;22.50;26.13
5703;BME280;2876;51.738;10.050;2023-04-27T11:16:04;99727.41;;;23.26;25.38
5703;BME280;2876;51.738;10.050;2023-04-27T11:22:06;99729.22;;;24.12;23.51
5703;BME280;2876;51.738;10.050;2023-04-27T11:28:17;99719.44;;;23.55;24.99
5703;BME280;2876;51.738;10.050;2023-04-27T11:34:22;99718.88;;;25.13;23.70
5703;BME280;2876;51.738;10.050;2023-04-27T11:40:24;99714.97;;;24.10;24.79
5703;BME280;2876;51.738;10.050;2023-04-27T11:46:27;99714.25;;;23.59;25.01
5703;BME280;2876;51.738;10.050;2023-04-27T11:52:31;99704.66;;;20.29;27.48
5703;BME280;2876;51.738;10.050;2023-04-27T11:58:34;99694.97;;;19.94;28.55
5703;BME280;2876;51.738;10.050;2023-04-27T12:04:37;99692.03;;;22.11;25.62
5703;BME280;2876;51.738;10.050;2023-04-27T12:10:39;99693.97;;;23.75;24.07
5703;BME280;2876;51.738;10.050;2023-04-27T12:16:42;99693.03;;;22.47;24.62
5703;BME280;2876;51.738;10.050;2023-04-27T12:22:44;99678.38;;;22.06;24.89
5703;BME280;2876;51.738;10.050;2023-04-27T12:28:46;99671.47;;;24.58;25.43
5703;BME280;2876;51.738;10.050;2023-04-27T12:34:48;99673.41;;;26.32;22.98
5703;BME280;2876;51.738;10.050;2023-04-27T12:40:50;99684.06;;;27.79;19.98
5703;BME280;2876;51.738;10.050;2023-04-27T12:46:52;99676.59;;;27.34;22.43
5703;BME280;2876;51.738;10.050;2023-04-27T12:52:54;99665.28;;;28.73;20.11
5703;BME280;2876;51.738;10.050;2023-04-27T12:58:56;99672.88;;;29.03;19.89
5703;BME280;2876;51.738;10.050;2023-04-27T13:04:58;99663.06;;;27.37;20.67
5703;BME280;2876;51.738;10.050;2023-04-27T13:11:00;99670.19;;;28.12;19.39
5703;BME280;2876;51.738;10.050;2023-04-27T13:17:02;99672.78;;;28.95;18.40
5703;BME280;2876;51.738;10.050;2023-04-27T13:23:05;99673.34;;;28.05;19.18
5703;BME280;2876;51.738;10.050;2023-04-27T13:29:07;99670.38;;;28.02;18.37
5703;BME280;2876;51.738;10.050;2023-04-27T13:35:09;99666.06;;;28.87;18.83
5703;BME280;2876;51.738;10.050;2023-04-27T13:41:11;99662.22;;;28.38;18.76
5703;BME280;2876;51.738;10.050;2023-04-27T13:47:13;99661.91;;;28.76;18.83
5703;BME280;2876;51.738;10.050;2023-04-27T13:53:15;99650.97;;;27.93;19.45
5703;BME280;2876;51.738;10.050;2023-04-27T13:59:17;99648.94;;;27.06;19.88
5703;BME280;2876;51.738;10.050;2023-04-27T14:05:19;99647.91;;;28.72;19.21
5703;BME280;2876;51.738;10.050;2023-04-27T14:11:21;99645.75;;;29.99;17.60
5703;BME280;2876;51.738;10.050;2023-04-27T14:17:24;99643.16;;;30.77;18.10
5703;BME280;2876;51.738;10.050;2023-04-27T14:23:26;99638.47;;;30.12;18.16
5703;BME280;2876;51.738;10.050;2023-04-27T14:29:28;99626.81;;;29.44;16.87
5703;BME280;2876;51.738;10.050;2023-04-27T14:35:33;99624.13;;;29.30;19.11
5703;BME280;2876;51.738;10.050;2023-04-27T14:41:35;99630.50;;;29.62;19.32
5703;BME280;2876;51.738;10.050;2023-04-27T14:47:38;99617.50;;;31.70;17.26
5703;BME280;2876;51.738;10.050;2023-04-27T14:53:40;99618.56;;;31.95;16.14
5703;BME280;2876;51.738;10.050;2023-04-27T14:59:42;99615.00;;;32.66;15.89
5703;BME280;2876;51.738;10.050;2023-04-27T15:05:45;99619.97;;;32.31;15.98
5703;BME280;2876;51.738;10.050;2023-04-27T15:11:47;99596.06;;;28.69;17.48
5703;BME280;2876;51.738;10.050;2023-04-27T15:17:49;99588.66;;;27.37;19.61
5703;BME280;2876;51.738;10.050;2023-04-27T15:23:51;99576.09;;;26.28;20.23
5703;BME280;2876;51.738;10.050;2023-04-27T15:29:53;99569.94;;;24.63;21.12
5703;BME280;2876;51.738;10.050;2023-04-27T15:35:55;99572.88;;;23.73;23.86
5703;BME280;2876;51.738;10.050;2023-04-27T15:41:59;99575.19;;;23.30;23.93
5703;BME280;2876;51.738;10.050;2023-04-27T15:48:02;99565.88;;;22.34;24.16
5703;BME280;2876;51.738;10.050;2023-04-27T15:54:04;99566.97;;;22.33;25.53
5703;BME280;2876;51.738;10.050;2023-04-27T16:00:07;99573.03;;;22.86;23.81
5703;BME280;2876;51.738;10.050;2023-04-27T16:06:12;99556.03;;;22.28;24.04
5703;BME280;2876;51.738;10.050;2023-04-27T16:12:14;99550.22;;;21.94;25.45
5703;BME280;2876;51.738;10.050;2023-04-27T16:18:16;99550.31;;;22.70;24.61
5703;BME280;2876;51.738;10.050;2023-04-27T16:24:18;99547.59;;;23.91;23.42
5703;BME280;2876;51.738;10.050;2023-04-27T16:30:20;99542.91;;;25.10;23.07
5703;BME280;2876;51.738;10.050;2023-04-27T16:36:24;99531.50;;;24.24;23.50
5703;BME280;2876;51.738;10.050;2023-04-27T16:42:26;99523.25;;;23.04;25.67
5703;BME280;2876;51.738;10.050;2023-04-27T16:48:28;99524.16;;;21.66;25.87
5703;BME280;2876;51.738;10.050;2023-04-27T16:54:30;99526.16;;;20.21;27.84
5703;BME280;2876;51.738;10.050;2023-04-27T17:00:32;99522.81;;;19.05;32.17
5703;BME280;2876;51.738;10.050;2023-04-27T17:06:34;99523.09;;;18.07;31.86
5703;BME280;2876;51.738;10.050;2023-04-27T17:12:37;99515.91;;;17.20;35.29
5703;BME280;2876;51.738;10.050;2023-04-27T17:18:39;99521.25;;;16.80;36.87
5703;BME280;2876;51.738;10.050;2023-04-27T17:24:41;99516.41;;;16.05;40.37
5703;BME280;2876;51.738;10.050;2023-04-27T17:30:43;99501.47;;;15.36;39.74
5703;BME280;2876;51.738;10.050;2023-04-27T17:36:45;99491.53;;;14.75;46.44
5703;BME280;2876;51.738;10.050;2023-04-27T17:42:47;99491.69;;;14.30;49.55
5703;BME280;2876;51.738;10.050;2023-04-27T17:48:50;99490.31;;;13.89;50.63
5703;BME280;2876;51.738;10.050;2023-04-27T17:54:52;99478.00;;;13.68;47.32
5703;BME280;2876;51.738;10.050;2023-04-27T18:00:54;99472.63;;;13.23;51.10
5703;BME280;2876;51.738;10.050;2023-04-27T18:06:56;99471.84;;;12.89;52.13
5703;BME280;2876;51.738;10.050;2023-04-27T18:12:58;99471.75;;;12.44;50.03
5703;BME280;2876;51.738;10.050;2023-04-27T18:19:00;99478.13;;;11.90;53.92
5703;BME280;2876;51.738;10.050;2023-04-27T18:25:02;99459.63;;;11.54;52.97
5703;BME280;2876;51.738;10.050;2023-04-27T18:31:15;99463.84;;;11.22;54.64
5703;BME280;2876;51.738;10.050;2023-04-27T18:37:18;99467.81;;;10.91;54.37
5703;BME280;2876;51.738;10.050;2023-04-27T18:43:20;99463.81;;;10.74;54.42
5703;BME280;2876;51.738;10.050;2023-04-27T18:49:22;99459.28;;;10.47;56.23
5703;BME280;2876;51.738;10.050;2023-04-27T18:55:24;99461.56;;;10.00;57.29
5703;BME280;2876;51.738;10.050;2023-04-27T19:01:27;99465.91;;;10.01;56.84
5703;BME280;2876;51.738;10.050;2023-04-27T19:07:32;99468.41;;;9.81;57.45
5703;BME280;2876;51.738;10.050;2023-04-27T19:13:34;99462.19;;;9.81;57.93
5703;BME280;2876;51.738;10.050;2023-04-27T19:19:36;99458.97;;;9.64;56.87
5703;BME280;2876;51.738;10.050;2023-04-27T19:25:38;99466.75;;;9.59;57.11
5703;BME280;2876;51.738;10.050;2023-04-27T19:31:41;99465.25;;;9.56;56.25
5703;BME280;2876;51.738;10.050;2023-04-27T19:37:43;99466.44;;;9.32;57.14
5703;BME280;2876;51.738;10.050;2023-04-27T19:43:44;99464.22;;;9.36;57.72
5703;BME280;2876;51.738;10.050;2023-04-27T19:49:46;99464.63;;;9.18;57.66
5703;BME280;2876;51.738;10.050;2023-04-27T19:55:48;99455.94;;;9.16;56.14
5703;BME280;2876;51.738;10.050;2023-04-27T20:01:50;99463.13;;;9.15;57.34
5703;BME280;2876;51.738;10.050;2023-04-27T20:07:53;99471.41;;;9.35;56.40
5703;BME280;2876;51.738;10.050;2023-04-27T20:13:54;99468.81;;;9.42;53.46
5703;BME280;2876;51.738;10.050;2023-04-27T20:19:56;99472.09;;;9.23;53.41
5703;BME280;2876;51.738;10.050;2023-04-27T20:25:58;99471.84;;;9.39;53.15
5703;BME280;2876;51.738;10.050;2023-04-27T20:32:00;99476.88;;;9.12;55.16
5703;BME280;2876;51.738;10.050;2023-04-27T20:38:03;99467.06;;;9.34;55.93
5703;BME280;2876;51.738;10.050;2023-04-27T20:44:05;99470.25;;;8.94;56.40
5703;BME280;2876;51.738;10.050;2023-04-27T20:50:08;99472.66;;;8.74;56.85
5703;BME280;2876;51.738;10.050;2023-04-27T20:56:10;99464.72;;;8.80;57.01
5703;BME280;2876;51.738;10.050;2023-04-27T21:02:12;99454.88;;;8.66;56.87
5703;BME280;2876;51.738;10.050;2023-04-27T21:08:16;99447.94;;;8.57;56.29
5703;BME280;2876;51.738;10.050;2023-04-27T21:14:18;99455.88;;;8.50;57.10
5703;BME280;2876;51.738;10.050;2023-04-27T21:20:20;99464.16;;;8.41;57.37
5703;BME280;2876;51.738;10.050;2023-04-27T21:26:22;99453.06;;;8.29;58.96
5703;BME280;2876;51.738;10.050;2023-04-27T21:32:23;99441.25;;;8.23;59.91
5703;BME280;2876;51.738;10.050;2023-04-27T21:38:25;99434.75;;;8.03;60.02
5703;BME280;2876;51.738;10.050;2023-04-27T21:44:27;99428.47;;;7.96;60.73
5703;BME280;2876;51.738;10.050;2023-04-27T21:50:29;99426.22;;;7.84;62.01
5703;BME280;2876;51.738;10.050;2023-04-27T21:56:31;99421.25;;;7.81;62.12
5703;BME280;2876;51.738;10.050;2023-04-27T22:02:33;99418.59;;;7.81;62.85
5703;BME280;2876;51.738;10.050;2023-04-27T22:08:35;99412.19;;;7.91;61.86
5703;BME280;2876;51.738;10.050;2023-04-27T22:14:37;99425.28;;;8.00;61.88
5703;BME280;2876;51.738;10.050;2023-04-27T22:20:40;99407.94;;;7.96;63.10
5703;BME280;2876;51.738;10.050;2023-04-27T22:26:43;99393.88;;;8.17;62.47
5703;BME280;2876;51.738;10.050;2023-04-27T22:32:45;99397.75;;;8.00;62.20
5703;BME280;2876;51.738;10.050;2023-04-27T22:38:49;99397.75;;;8.14;62.66
5703;BME280;2876;51.738;10.050;2023-04-27T22:44:51;99392.69;;;8.05;64.18
5703;BME280;2876;51.738;10.050;2023-04-27T22:50:53;99387.88;;;8.00;64.85
5703;BME280;2876;51.738;10.050;2023-04-27T22:56:55;99379.47;;;7.88;65.13
5703;BME280;2876;51.738;10.050;2023-04-27T23:02:58;99373.00;;;7.83;64.74
5703;BME280;2876;51.738;10.050;2023-04-27T23:09:00;99362.88;;;7.78;65.02
5703;BME280;2876;51.738;10.050;2023-04-27T23:15:04;99350.75;;;7.91;64.14
5703;BME280;2876;51.738;10.050;2023-04-27T23:21:06;99343.94;;;7.88;64.77
5703;BME280;2876;51.738;10.050;2023-04-27T23:27:08;99335.50;;;7.76;65.06
5703;BME280;2876;51.738;10.050;2023-04-27T23:33:10;99333.16;;;7.58;66.01
5703;BME280;2876;51.738;10.050;2023-04-27T23:39:12;99325.84;;;7.60;65.67
5703;BME280;2876;51.738;10.050;2023-04-27T23:45:13;99313.66;;;7.58;66.09
5703;BME280;2876;51.738;10.050;2023-04-27T23:51:16;99307.81;;;7.40;66.21
5703;BME280;2876;51.738;10.050;2023-04-27T23:57:18;99301.66;;;7.39;66.90
